sensor_id;sensor_type;location;lat;lon;timestamp;temperature;humidity
78876;DHT22;68253;52.506;5.486;2023-04-24T00:00:57;11.40;74.00
78876;DHT22;68253;52.506;5.486;2023-04-24T00:03:24;11.40;73.90
78876;DHT22;68253;52.506;5.486;2023-04-24T00:05:56;11.30;73.80
78876;DHT22;68253;52.506;5.486;2023-04-24T00:08:22;11.30;74.00
78876;DHT22;68253;52.506;5.486;2023-04-24T00:10:49;11.30;73.90
78876;DHT22;68253;52.506;5.486;2023-04-24T00:13:16;11.30;73.80
78876;DHT22;68253;52.506;5.486;2023-04-24T00:15:42;11.30;73.90
78876;DHT22;68253;52.506;5.486;2023-04-24T00:18:08;11.30;73.90
78876;DHT22;68253;52.506;5.486;2023-04-24T00:20:34;11.20;73.90
78876;DHT22;68253;52.506;5.486;2023-04-24T00:23:01;11.10;73.90
78876;DHT22;68253;52.506;5.486;2023-04-24T00:25:27;11.10;74.00
78876;DHT22;68253;52.506;5.486;2023-04-24T00:27:53;11.10;74.10
78876;DHT22;68253;52.506;5.486;2023-04-24T00:30:20;11.10;74.10
78876;DHT22;68253;52.506;5.486;2023-04-24T00:32:46;11.10;74.20
78876;DHT22;68253;52.506;5.486;2023-04-24T00:35:12;11.00;74.30
78876;DHT22;68253;52.506;5.486;2023-04-24T00:37:38;11.00;74.40
78876;DHT22;68253;52.506;5.486;2023-04-24T00:40:07;10.90;74.50
78876;DHT22;68253;52.506;5.486;2023-04-24T00:42:34;10.90;74.60
78876;DHT22;68253;52.506;5.486;2023-04-24T00:45:00;10.90;74.70
78876;DHT22;68253;52.506;5.486;2023-04-24T00:47:28;10.90;74.80
78876;DHT22;68253;52.506;5.486;2023-04-24T00:49:54;10.90;74.80
78876;DHT22;68253;52.506;5.486;2023-04-24T00:52:21;10.80;74.80
78876;DHT22;68253;52.506;5.486;2023-04-24T00:54:50;10.80;75.00
78876;DHT22;68253;52.506;5.486;2023-04-24T00:57:16;10.80;75.00
78876;DHT22;68253;52.506;5.486;2023-04-24T00:59:43;10.80;75.10
78876;DHT22;68253;52.506;5.486;2023-04-24T01:02:11;10.80;75.20
78876;DHT22;68253;52.506;5.486;2023-04-24T01:04:37;10.80;75.10
78876;DHT22;68253;52.506;5.486;2023-04-24T01:07:04;10.80;75.10
78876;DHT22;68253;52.506;5.486;2023-04-24T01:09:40;10.90;75.20
78876;DHT22;68253;52.506;5.486;2023-04-24T01:12:08;10.80;75.20
78876;DHT22;68253;52.506;5.486;2023-04-24T01:14:37;10.90;75.30
78876;DHT22;68253;52.506;5.486;2023-04-24T01:17:04;10.90;75.30
78876;DHT22;68253;52.506;5.486;2023-04-24T01:19:30;10.90;75.30
78876;DHT22;68253;52.506;5.486;2023-04-24T01:21:58;10.90;75.30
78876;DHT22;68253;52.506;5.486;2023-04-24T01:24:27;10.90;75.40
78876;DHT22;68253;52.506;5.486;2023-04-24T01:26:53;10.90;75.40
78876;DHT22;68253;52.506;5.486;2023-04-24T01:29:19;10.90;75.40
78876;DHT22;68253;52.506;5.486;2023-04-24T01:31:45;10.90;75.40
78876;DHT22;68253;52.506;5.486;2023-04-24T01:34:12;10.90;75.40
78876;DHT22;68253;52.506;5.486;2023-04-24T01:36:39;10.90;75.40
78876;DHT22;68253;52.506;5.486;2023-04-24T01:39:06;10.90;75.50
78876;DHT22;68253;52.506;5.486;2023-04-24T01:41:32;10.90;75.50
78876;DHT22;68253;52.506;5.486;2023-04-24T01:43:59;10.90;75.70
78876;DHT22;68253;52.506;5.486;2023-04-24T01:46:26;10.90;75.80
78876;DHT22;68253;52.506;5.486;2023-04-24T01:48:52;10.90;76.10
78876;DHT22;68253;52.506;5.486;2023-04-24T01:51:19;10.90;76.00
78876;DHT22;68253;52.506;5.486;2023-04-24T01:53:45;10.90;75.80
78876;DHT22;68253;52.506;5.486;2023-04-24T01:56:11;10.90;75.40
78876;DHT22;68253;52.506;5.486;2023-04-24T01:58:38;10.90;75.00
78876;DHT22;68253;52.506;5.486;2023-04-24T02:01:06;10.90;74.80
78876;DHT22;68253;52.506;5.486;2023-04-24T02:03:32;10.90;74.50
78876;DHT22;68253;52.506;5.486;2023-04-24T02:05:58;10.80;74.40
78876;DHT22;68253;52.506;5.486;2023-04-24T02:08:25;10.60;74.70
78876;DHT22;68253;52.506;5.486;2023-04-24T02:10:51;10.50;75.00
78876;DHT22;68253;52.506;5.486;2023-04-24T02:13:17;10.50;75.10
78876;DHT22;68253;52.506;5.486;2023-04-24T02:15:43;10.40;75.20
78876;DHT22;68253;52.506;5.486;2023-04-24T02:18:09;10.30;75.30
78876;DHT22;68253;52.506;5.486;2023-04-24T02:20:37;10.20;75.60
78876;DHT22;68253;52.506;5.486;2023-04-24T02:23:04;10.20;75.90
78876;DHT22;68253;52.506;5.486;2023-04-24T02:25:30;10.20;76.10
78876;DHT22;68253;52.506;5.486;2023-04-24T02:27:56;10.10;76.40
78876;DHT22;68253;52.506;5.486;2023-04-24T02:30:22;10.10;76.50
78876;DHT22;68253;52.506;5.486;2023-04-24T02:32:48;10.10;76.50
78876;DHT22;68253;52.506;5.486;2023-04-24T02:35:15;10.00;76.50
78876;DHT22;68253;52.506;5.486;2023-04-24T02:37:41;10.00;76.50
78876;DHT22;68253;52.506;5.486;2023-04-24T02:40:07;10.00;76.30
78876;DHT22;68253;52.506;5.486;2023-04-24T02:42:34;10.00;76.30
78876;DHT22;68253;52.506;5.486;2023-04-24T02:45:01;9.80;76.00
78876;DHT22;68253;52.506;5.486;2023-04-24T02:47:27;9.80;75.90
78876;DHT22;68253;52.506;5.486;2023-04-24T02:49:53;9.70;75.00
78876;DHT22;68253;52.506;5.486;2023-04-24T02:52:20;9.60;75.20
78876;DHT22;68253;52.506;5.486;2023-04-24T02:54:46;9.50;75.40
78876;DHT22;68253;52.506;5.486;2023-04-24T02:57:12;9.40;75.50
78876;DHT22;68253;52.506;5.486;2023-04-24T02:59:41;9.40;75.80
78876;DHT22;68253;52.506;5.486;2023-04-24T03:02:07;9.40;75.80
78876;DHT22;68253;52.506;5.486;2023-04-24T03:04:33;9.30;76.00
78876;DHT22;68253;52.506;5.486;2023-04-24T03:06:59;9.30;76.10
78876;DHT22;68253;52.506;5.486;2023-04-24T03:09:25;9.30;76.50
78876;DHT22;68253;52.506;5.486;2023-04-24T03:11:51;9.30;76.30
78876;DHT22;68253;52.506;5.486;2023-04-24T03:14:17;9.40;76.50
78876;DHT22;68253;52.506;5.486;2023-04-24T03:16:43;9.40;76.50
78876;DHT22;68253;52.506;5.486;2023-04-24T03:19:09;9.30;76.60
78876;DHT22;68253;52.506;5.486;2023-04-24T03:21:44;9.30;76.80
78876;DHT22;68253;52.506;5.486;2023-04-24T03:24:10;9.40;76.80
78876;DHT22;68253;52.506;5.486;2023-04-24T03:26:37;9.40;77.00
78876;DHT22;68253;52.506;5.486;2023-04-24T03:29:16;9.40;77.10
78876;DHT22;68253;52.506;5.486;2023-04-24T03:31:43;9.40;77.20
78876;DHT22;68253;52.506;5.486;2023-04-24T03:34:09;9.40;77.30
78876;DHT22;68253;52.506;5.486;2023-04-24T03:36:36;9.40;77.30
78876;DHT22;68253;52.506;5.486;2023-04-24T03:39:03;9.50;77.30
78876;DHT22;68253;52.506;5.486;2023-04-24T03:41:35;9.50;77.10
78876;DHT22;68253;52.506;5.486;2023-04-24T03:44:08;9.50;77.20
78876;DHT22;68253;52.506;5.486;2023-04-24T03:46:35;9.60;77.20
78876;DHT22;68253;52.506;5.486;2023-04-24T03:49:02;9.60;77.10
78876;DHT22;68253;52.506;5.486;2023-04-24T03:51:32;9.60;77.00
78876;DHT22;68253;52.506;5.486;2023-04-24T03:54:09;9.70;77.00
78876;DHT22;68253;52.506;5.486;2023-04-24T03:56:38;9.80;76.90
78876;DHT22;68253;52.506;5.486;2023-04-24T03:59:04;9.80;76.90
78876;DHT22;68253;52.506;5.486;2023-04-24T04:01:31;9.80;76.50
78876;DHT22;68253;52.506;5.486;2023-04-24T04:04:01;9.80;75.90
78876;DHT22;68253;52.506;5.486;2023-04-24T04:06:30;9.80;76.00
78876;DHT22;68253;52.506;5.486;2023-04-24T04:09:00;9.80;75.80
78876;DHT22;68253;52.506;5.486;2023-04-24T04:11:26;9.90;75.70
78876;DHT22;68253;52.506;5.486;2023-04-24T04:13:52;9.80;75.70
78876;DHT22;68253;52.506;5.486;2023-04-24T04:16:21;9.90;75.80
78876;DHT22;68253;52.506;5.486;2023-04-24T04:18:49;10.00;75.80
78876;DHT22;68253;52.506;5.486;2023-04-24T04:21:15;10.00;75.80
78876;DHT22;68253;52.506;5.486;2023-04-24T04:23:42;10.00;76.10
78876;DHT22;68253;52.506;5.486;2023-04-24T04:26:20;10.00;76.10
78876;DHT22;68253;52.506;5.486;2023-04-24T04:29:19;10.00;76.10
78876;DHT22;68253;52.506;5.486;2023-04-24T04:31:47;10.00;76.10
78876;DHT22;68253;52.506;5.486;2023-04-24T04:34:14;10.00;76.20
78876;DHT22;68253;52.506;5.486;2023-04-24T04:36:41;10.00;76.20
78876;DHT22;68253;52.506;5.486;2023-04-24T04:39:22;10.10;76.10
78876;DHT22;68253;52.506;5.486;2023-04-24T04:41:58;10.10;76.10
78876;DHT22;68253;52.506;5.486;2023-04-24T04:44:31;10.10;76.10
78876;DHT22;68253;52.506;5.486;2023-04-24T04:46:59;10.10;76.10
78876;DHT22;68253;52.506;5.486;2023-04-24T04:49:29;10.10;76.10
78876;DHT22;68253;52.506;5.486;2023-04-24T04:51:56;10.20;76.10
78876;DHT22;68253;52.506;5.486;2023-04-24T04:54:25;10.20;76.10
78876;DHT22;68253;52.506;5.486;2023-04-24T04:56:51;10.20;76.20
78876;DHT22;68253;52.506;5.486;2023-04-24T04:59:17;10.20;76.20
78876;DHT22;68253;52.506;5.486;2023-04-24T05:01:44;10.20;76.00
78876;DHT22;68253;52.506;5.486;2023-04-24T05:04:12;10.20;76.00
78876;DHT22;68253;52.506;5.486;2023-04-24T05:06:38;10.30;76.00
78876;DHT22;68253;52.506;5.486;2023-04-24T05:09:05;10.30;76.10
78876;DHT22;68253;52.506;5.486;2023-04-24T05:11:39;10.30;76.10
78876;DHT22;68253;52.506;5.486;2023-04-24T05:14:06;10.30;76.10
78876;DHT22;68253;52.506;5.486;2023-04-24T05:16:35;10.40;76.20
78876;DHT22;68253;52.506;5.486;2023-04-24T05:19:03;10.40;76.10
78876;DHT22;68253;52.506;5.486;2023-04-24T05:21:34;10.40;76.10
78876;DHT22;68253;52.506;5.486;2023-04-24T05:24:01;10.40;75.90
78876;DHT22;68253;52.506;5.486;2023-04-24T05:26:45;10.40;75.90
78876;DHT22;68253;52.506;5.486;2023-04-24T05:29:14;10.40;75.80
78876;DHT22;68253;52.506;5.486;2023-04-24T05:31:42;10.30;75.80
78876;DHT22;68253;52.506;5.486;2023-04-24T05:34:08;10.30;75.70
78876;DHT22;68253;52.506;5.486;2023-04-24T05:36:39;10.30;75.50
78876;DHT22;68253;52.506;5.486;2023-04-24T05:39:05;10.20;75.50
78876;DHT22;68253;52.506;5.486;2023-04-24T05:41:31;10.20;75.30
78876;DHT22;68253;52.506;5.486;2023-04-24T05:43:57;10.10;75.50
78876;DHT22;68253;52.506;5.486;2023-04-24T05:46:23;10.10;75.50
78876;DHT22;68253;52.506;5.486;2023-04-24T05:48:49;10.10;75.60
78876;DHT22;68253;52.506;5.486;2023-04-24T05:51:15;10.10;75.70
78876;DHT22;68253;52.506;5.486;2023-04-24T05:53:42;10.10;75.80
78876;DHT22;68253;52.506;5.486;2023-04-24T05:56:08;10.10;75.80
78876;DHT22;68253;52.506;5.486;2023-04-24T05:58:35;10.10;75.90
78876;DHT22;68253;52.506;5.486;2023-04-24T06:01:03;10.20;75.80
78876;DHT22;68253;52.506;5.486;2023-04-24T06:03:30;10.20;75.90
78876;DHT22;68253;52.506;5.486;2023-04-24T06:05:56;10.20;75.90
78876;DHT22;68253;52.506;5.486;2023-04-24T06:08:23;10.20;75.80
78876;DHT22;68253;52.506;5.486;2023-04-24T06:10:49;10.20;75.80
78876;DHT22;68253;52.506;5.486;2023-04-24T06:13:18;10.20;75.70
78876;DHT22;68253;52.506;5.486;2023-04-24T06:16:00;10.20;75.70
78876;DHT22;68253;52.506;5.486;2023-04-24T06:18:33;10.20;75.60
78876;DHT22;68253;52.506;5.486;2023-04-24T06:20:59;10.10;75.60
78876;DHT22;68253;52.506;5.486;2023-04-24T06:23:25;10.10;75.50
78876;DHT22;68253;52.506;5.486;2023-04-24T06:25:51;10.00;75.40
78876;DHT22;68253;52.506;5.486;2023-04-24T06:28:18;10.00;75.30
78876;DHT22;68253;52.506;5.486;2023-04-24T06:30:44;10.00;75.20
78876;DHT22;68253;52.506;5.486;2023-04-24T06:33:11;10.00;75.10
78876;DHT22;68253;52.506;5.486;2023-04-24T06:35:37;9.90;75.10
78876;DHT22;68253;52.506;5.486;2023-04-24T06:38:04;9.80;75.10
78876;DHT22;68253;52.506;5.486;2023-04-24T06:40:30;9.70;75.00
78876;DHT22;68253;52.506;5.486;2023-04-24T06:42:56;9.60;75.10
78876;DHT22;68253;52.506;5.486;2023-04-24T06:45:23;9.60;75.00
78876;DHT22;68253;52.506;5.486;2023-04-24T06:47:50;9.60;75.20
78876;DHT22;68253;52.506;5.486;2023-04-24T06:50:16;9.50;75.10
78876;DHT22;68253;52.506;5.486;2023-04-24T06:52:42;9.40;75.10
78876;DHT22;68253;52.506;5.486;2023-04-24T06:55:09;9.40;75.20
78876;DHT22;68253;52.506;5.486;2023-04-24T06:57:36;9.40;75.10
78876;DHT22;68253;52.506;5.486;2023-04-24T07:00:03;9.40;75.30
78876;DHT22;68253;52.506;5.486;2023-04-24T07:02:30;9.40;75.40
78876;DHT22;68253;52.506;5.486;2023-04-24T07:04:57;9.40;75.40
78876;DHT22;68253;52.506;5.486;2023-04-24T07:07:23;9.40;75.40
78876;DHT22;68253;52.506;5.486;2023-04-24T07:09:49;9.30;75.40
78876;DHT22;68253;52.506;5.486;2023-04-24T07:12:16;9.40;75.40
78876;DHT22;68253;52.506;5.486;2023-04-24T07:14:42;9.40;75.10
78876;DHT22;68253;52.506;5.486;2023-04-24T07:17:09;9.40;75.10
78876;DHT22;68253;52.506;5.486;2023-04-24T07:19:35;9.30;75.20
78876;DHT22;68253;52.506;5.486;2023-04-24T07:22:01;9.40;75.00
78876;DHT22;68253;52.506;5.486;2023-04-24T07:24:29;9.40;74.90
78876;DHT22;68253;52.506;5.486;2023-04-24T07:26:58;9.40;74.70
78876;DHT22;68253;52.506;5.486;2023-04-24T07:29:24;9.40;74.70
78876;DHT22;68253;52.506;5.486;2023-04-24T07:31:50;9.30;74.70
78876;DHT22;68253;52.506;5.486;2023-04-24T07:34:16;9.40;74.70
78876;DHT22;68253;52.506;5.486;2023-04-24T07:36:43;9.30;74.50
78876;DHT22;68253;52.506;5.486;2023-04-24T07:39:09;9.30;74.60
78876;DHT22;68253;52.506;5.486;2023-04-24T07:41:35;9.30;74.50
78876;DHT22;68253;52.506;5.486;2023-04-24T07:44:01;9.30;74.50
78876;DHT22;68253;52.506;5.486;2023-04-24T07:46:27;9.30;74.50
78876;DHT22;68253;52.506;5.486;2023-04-24T07:48:55;9.40;74.60
78876;DHT22;68253;52.506;5.486;2023-04-24T07:51:22;9.30;74.50
78876;DHT22;68253;52.506;5.486;2023-04-24T07:53:48;9.30;74.40
78876;DHT22;68253;52.506;5.486;2023-04-24T07:56:14;9.30;74.40
78876;DHT22;68253;52.506;5.486;2023-04-24T07:58:40;9.30;74.50
78876;DHT22;68253;52.506;5.486;2023-04-24T08:01:06;9.30;74.60
78876;DHT22;68253;52.506;5.486;2023-04-24T08:03:33;9.30;74.60
78876;DHT22;68253;52.506;5.486;2023-04-24T08:05:59;9.40;74.50
78876;DHT22;68253;52.506;5.486;2023-04-24T08:08:25;9.40;74.60
78876;DHT22;68253;52.506;5.486;2023-04-24T08:10:51;9.40;74.40
78876;DHT22;68253;52.506;5.486;2023-04-24T08:13:17;9.40;74.30
78876;DHT22;68253;52.506;5.486;2023-04-24T08:15:43;9.50;74.20
78876;DHT22;68253;52.506;5.486;2023-04-24T08:18:09;9.50;74.30
78876;DHT22;68253;52.506;5.486;2023-04-24T08:20:38;9.50;74.30
78876;DHT22;68253;52.506;5.486;2023-04-24T08:23:04;9.60;74.30
78876;DHT22;68253;52.506;5.486;2023-04-24T08:25:30;9.60;74.30
78876;DHT22;68253;52.506;5.486;2023-04-24T08:27:56;9.60;74.20
78876;DHT22;68253;52.506;5.486;2023-04-24T08:30:22;9.60;74.10
78876;DHT22;68253;52.506;5.486;2023-04-24T08:32:49;9.60;74.30
78876;DHT22;68253;52.506;5.486;2023-04-24T08:35:15;9.70;74.00
78876;DHT22;68253;52.506;5.486;2023-04-24T08:37:41;9.70;74.00
78876;DHT22;68253;52.506;5.486;2023-04-24T08:40:14;9.70;73.90
78876;DHT22;68253;52.506;5.486;2023-04-24T08:42:44;9.60;73.90
78876;DHT22;68253;52.506;5.486;2023-04-24T08:45:10;9.60;74.00
78876;DHT22;68253;52.506;5.486;2023-04-24T08:47:38;9.60;74.10
78876;DHT22;68253;52.506;5.486;2023-04-24T08:50:05;9.60;74.10
78876;DHT22;68253;52.506;5.486;2023-04-24T08:52:34;9.50;74.10
78876;DHT22;68253;52.506;5.486;2023-04-24T08:55:01;9.50;74.20
78876;DHT22;68253;52.506;5.486;2023-04-24T08:57:27;9.50;74.30
78876;DHT22;68253;52.506;5.486;2023-04-24T08:59:54;9.50;74.20
78876;DHT22;68253;52.506;5.486;2023-04-24T09:02:21;9.40;74.10
78876;DHT22;68253;52.506;5.486;2023-04-24T09:04:47;9.40;74.40
78876;DHT22;68253;52.506;5.486;2023-04-24T09:07:16;9.40;74.40
78876;DHT22;68253;52.506;5.486;2023-04-24T09:09:43;9.40;74.60
78876;DHT22;68253;52.506;5.486;2023-04-24T09:12:10;9.40;74.50
78876;DHT22;68253;52.506;5.486;2023-04-24T09:14:36;9.50;74.30
78876;DHT22;68253;52.506;5.486;2023-04-24T09:17:06;9.50;74.20
78876;DHT22;68253;52.506;5.486;2023-04-24T09:19:32;9.50;73.60
78876;DHT22;68253;52.506;5.486;2023-04-24T09:21:58;9.50;73.60
78876;DHT22;68253;52.506;5.486;2023-04-24T09:24:24;9.60;73.30
78876;DHT22;68253;52.506;5.486;2023-04-24T09:26:58;9.60;72.80
78876;DHT22;68253;52.506;5.486;2023-04-24T09:29:25;9.60;72.70
78876;DHT22;68253;52.506;5.486;2023-04-24T09:31:51;9.60;72.40
78876;DHT22;68253;52.506;5.486;2023-04-24T09:34:26;9.60;72.40
78876;DHT22;68253;52.506;5.486;2023-04-24T09:36:53;9.70;72.10
78876;DHT22;68253;52.506;5.486;2023-04-24T09:39:19;9.80;71.70
78876;DHT22;68253;52.506;5.486;2023-04-24T09:41:50;9.90;72.00
78876;DHT22;68253;52.506;5.486;2023-04-24T09:44:18;10.00;71.90
78876;DHT22;68253;52.506;5.486;2023-04-24T09:46:54;10.20;70.80
78876;DHT22;68253;52.506;5.486;2023-04-24T09:49:29;10.30;70.30
78876;DHT22;68253;52.506;5.486;2023-04-24T09:52:07;10.40;69.80
78876;DHT22;68253;52.506;5.486;2023-04-24T09:54:33;10.50;69.60
78876;DHT22;68253;52.506;5.486;2023-04-24T09:56:59;10.50;69.50
78876;DHT22;68253;52.506;5.486;2023-04-24T09:59:29;10.50;69.20
78876;DHT22;68253;52.506;5.486;2023-04-24T10:01:55;10.40;69.40
78876;DHT22;68253;52.506;5.486;2023-04-24T10:04:23;10.20;69.50
78876;DHT22;68253;52.506;5.486;2023-04-24T10:06:51;10.10;69.70
78876;DHT22;68253;52.506;5.486;2023-04-24T10:09:20;10.10;68.50
78876;DHT22;68253;52.506;5.486;2023-04-24T10:11:48;10.00;68.70
78876;DHT22;68253;52.506;5.486;2023-04-24T10:14:20;10.00;68.50
78876;DHT22;68253;52.506;5.486;2023-04-24T10:16:47;9.90;68.90
78876;DHT22;68253;52.506;5.486;2023-04-24T10:19:14;10.00;69.30
78876;DHT22;68253;52.506;5.486;2023-04-24T10:21:43;10.00;69.50
78876;DHT22;68253;52.506;5.486;2023-04-24T10:24:16;10.20;68.20
78876;DHT22;68253;52.506;5.486;2023-04-24T10:26:45;10.30;68.40
78876;DHT22;68253;52.506;5.486;2023-04-24T10:29:12;10.40;68.30
78876;DHT22;68253;52.506;5.486;2023-04-24T10:31:39;10.40;68.00
78876;DHT22;68253;52.506;5.486;2023-04-24T10:34:06;10.40;68.20
78876;DHT22;68253;52.506;5.486;2023-04-24T10:36:34;10.50;68.20
78876;DHT22;68253;52.506;5.486;2023-04-24T10:39:03;10.60;68.00
78876;DHT22;68253;52.506;5.486;2023-04-24T10:41:32;10.70;67.50
78876;DHT22;68253;52.506;5.486;2023-04-24T10:44:09;10.70;67.70
78876;DHT22;68253;52.506;5.486;2023-04-24T10:46:39;10.70;66.70
78876;DHT22;68253;52.506;5.486;2023-04-24T10:49:08;10.70;66.70
78876;DHT22;68253;52.506;5.486;2023-04-24T10:54:28;10.60;66.00
78876;DHT22;68253;52.506;5.486;2023-04-24T10:57:27;10.50;65.70
78876;DHT22;68253;52.506;5.486;2023-04-24T11:02:40;10.50;65.70
78876;DHT22;68253;52.506;5.486;2023-04-24T11:05:09;10.60;65.90
78876;DHT22;68253;52.506;5.486;2023-04-24T11:08:15;10.50;66.10
78876;DHT22;68253;52.506;5.486;2023-04-24T11:10:46;10.50;66.40
78876;DHT22;68253;52.506;5.486;2023-04-24T11:13:16;10.60;66.60
78876;DHT22;68253;52.506;5.486;2023-04-24T11:15:43;10.60;66.60
78876;DHT22;68253;52.506;5.486;2023-04-24T11:18:14;10.50;66.80
78876;DHT22;68253;52.506;5.486;2023-04-24T11:20:44;10.50;66.80
78876;DHT22;68253;52.506;5.486;2023-04-24T11:23:11;10.40;66.90
78876;DHT22;68253;52.506;5.486;2023-04-24T11:25:37;10.40;67.10
78876;DHT22;68253;52.506;5.486;2023-04-24T11:28:05;10.30;67.30
78876;DHT22;68253;52.506;5.486;2023-04-24T11:30:32;10.50;67.20
78876;DHT22;68253;52.506;5.486;2023-04-24T11:33:04;10.70;67.30
78876;DHT22;68253;52.506;5.486;2023-04-24T11:35:35;11.00;66.90
78876;DHT22;68253;52.506;5.486;2023-04-24T11:38:03;11.40;66.80
78876;DHT22;68253;52.506;5.486;2023-04-24T11:40:31;11.80;65.90
78876;DHT22;68253;52.506;5.486;2023-04-24T11:42:59;12.10;65.00
78876;DHT22;68253;52.506;5.486;2023-04-24T11:45:28;12.10;63.70
78876;DHT22;68253;52.506;5.486;2023-04-24T11:47:54;12.00;64.00
78876;DHT22;68253;52.506;5.486;2023-04-24T11:50:23;11.70;64.30
78876;DHT22;68253;52.506;5.486;2023-04-24T11:52:51;11.40;65.30
78876;DHT22;68253;52.506;5.486;2023-04-24T12:00:27;10.60;67.00
78876;DHT22;68253;52.506;5.486;2023-04-24T12:03:10;10.50;66.70
78876;DHT22;68253;52.506;5.486;2023-04-24T12:05:37;10.50;66.50
78876;DHT22;68253;52.506;5.486;2023-04-24T12:08:04;10.70;66.70
78876;DHT22;68253;52.506;5.486;2023-04-24T12:10:32;11.00;66.60
78876;DHT22;68253;52.506;5.486;2023-04-24T12:12:58;11.50;66.80
78876;DHT22;68253;52.506;5.486;2023-04-24T12:15:26;12.00;65.80
78876;DHT22;68253;52.506;5.486;2023-04-24T12:17:54;12.40;64.70
78876;DHT22;68253;52.506;5.486;2023-04-24T12:20:31;12.50;63.80
78876;DHT22;68253;52.506;5.486;2023-04-24T12:22:59;12.50;63.10
78876;DHT22;68253;52.506;5.486;2023-04-24T12:25:27;12.30;62.20
78876;DHT22;68253;52.506;5.486;2023-04-24T12:30:39;11.50;63.70
78876;DHT22;68253;52.506;5.486;2023-04-24T12:33:05;11.30;64.00
78876;DHT22;68253;52.506;5.486;2023-04-24T12:35:32;11.10;64.50
78876;DHT22;68253;52.506;5.486;2023-04-24T12:38:06;11.20;64.20
78876;DHT22;68253;52.506;5.486;2023-04-24T12:40:33;11.30;64.20
78876;DHT22;68253;52.506;5.486;2023-04-24T12:43:00;11.40;63.80
78876;DHT22;68253;52.506;5.486;2023-04-24T12:45:26;11.50;63.80
78876;DHT22;68253;52.506;5.486;2023-04-24T12:47:53;11.40;63.50
78876;DHT22;68253;52.506;5.486;2023-04-24T12:50:20;11.20;63.60
78876;DHT22;68253;52.506;5.486;2023-04-24T12:52:46;11.10;64.20
78876;DHT22;68253;52.506;5.486;2023-04-24T12:55:12;11.00;64.10
78876;DHT22;68253;52.506;5.486;2023-04-24T12:57:39;11.00;64.60
78876;DHT22;68253;52.506;5.486;2023-04-24T13:00:07;10.90;64.70
78876;DHT22;68253;52.506;5.486;2023-04-24T13:02:33;10.70;64.80
78876;DHT22;68253;52.506;5.486;2023-04-24T13:05:00;10.70;65.30
78876;DHT22;68253;52.506;5.486;2023-04-24T13:07:27;10.60;65.00
78876;DHT22;68253;52.506;5.486;2023-04-24T13:09:54;10.60;64.40
78876;DHT22;68253;52.506;5.486;2023-04-24T13:12:21;10.60;64.70
78876;DHT22;68253;52.506;5.486;2023-04-24T13:14:48;10.80;64.60
78876;DHT22;68253;52.506;5.486;2023-04-24T13:17:15;10.90;64.10
78876;DHT22;68253;52.506;5.486;2023-04-24T13:19:42;11.10;63.40
78876;DHT22;68253;52.506;5.486;2023-04-24T13:22:10;11.30;63.30
78876;DHT22;68253;52.506;5.486;2023-04-24T13:24:37;11.40;63.00
78876;DHT22;68253;52.506;5.486;2023-04-24T13:27:04;11.50;62.90
78876;DHT22;68253;52.506;5.486;2023-04-24T13:29:30;11.50;62.50
78876;DHT22;68253;52.506;5.486;2023-04-24T13:31:56;11.50;62.00
78876;DHT22;68253;52.506;5.486;2023-04-24T13:34:25;11.60;62.30
78876;DHT22;68253;52.506;5.486;2023-04-24T13:36:53;11.50;62.20
78876;DHT22;68253;52.506;5.486;2023-04-24T13:39:20;11.40;62.40
78876;DHT22;68253;52.506;5.486;2023-04-24T13:41:47;11.30;62.80
78876;DHT22;68253;52.506;5.486;2023-04-24T13:44:14;11.10;63.00
78876;DHT22;68253;52.506;5.486;2023-04-24T13:46:41;11.00;63.40
78876;DHT22;68253;52.506;5.486;2023-04-24T13:49:09;10.90;63.70
78876;DHT22;68253;52.506;5.486;2023-04-24T13:51:35;10.90;63.90
78876;DHT22;68253;52.506;5.486;2023-04-24T13:54:01;10.80;63.90
78876;DHT22;68253;52.506;5.486;2023-04-24T13:56:27;10.80;63.70
78876;DHT22;68253;52.506;5.486;2023-04-24T13:58:54;10.80;63.40
78876;DHT22;68253;52.506;5.486;2023-04-24T14:01:20;10.70;63.40
78876;DHT22;68253;52.506;5.486;2023-04-24T14:03:55;10.70;63.50
78876;DHT22;68253;52.506;5.486;2023-04-24T14:06:22;10.60;63.70
78876;DHT22;68253;52.506;5.486;2023-04-24T14:08:49;10.60;64.00
78876;DHT22;68253;52.506;5.486;2023-04-24T14:11:16;10.70;64.00
78876;DHT22;68253;52.506;5.486;2023-04-24T14:13:43;10.70;64.20
78876;DHT22;68253;52.506;5.486;2023-04-24T14:16:10;10.70;64.00
78876;DHT22;68253;52.506;5.486;2023-04-24T14:18:36;10.70;64.10
78876;DHT22;68253;52.506;5.486;2023-04-24T14:21:03;10.80;64.20
78876;DHT22;68253;52.506;5.486;2023-04-24T14:23:29;11.00;63.90
78876;DHT22;68253;52.506;5.486;2023-04-24T14:25:57;11.10;63.50
78876;DHT22;68253;52.506;5.486;2023-04-24T14:28:24;11.40;63.40
78876;DHT22;68253;52.506;5.486;2023-04-24T14:30:50;11.70;62.80
78876;DHT22;68253;52.506;5.486;2023-04-24T14:33:17;11.90;62.30
78876;DHT22;68253;52.506;5.486;2023-04-24T14:35:43;12.00;61.10
78876;DHT22;68253;52.506;5.486;2023-04-24T14:38:10;12.00;60.80
78876;DHT22;68253;52.506;5.486;2023-04-24T14:40:37;12.10;61.10
78876;DHT22;68253;52.506;5.486;2023-04-24T14:43:03;12.30;61.00
78876;DHT22;68253;52.506;5.486;2023-04-24T14:45:29;12.50;60.90
78876;DHT22;68253;52.506;5.486;2023-04-24T14:47:56;12.70;60.20
78876;DHT22;68253;52.506;5.486;2023-04-24T14:50:22;12.60;60.60
78876;DHT22;68253;52.506;5.486;2023-04-24T14:52:48;12.70;60.80
78876;DHT22;68253;52.506;5.486;2023-04-24T14:55:14;12.80;60.90
78876;DHT22;68253;52.506;5.486;2023-04-24T14:57:40;13.00;60.70
78876;DHT22;68253;52.506;5.486;2023-04-24T15:00:07;13.10;60.50
78876;DHT22;68253;52.506;5.486;2023-04-24T15:02:36;13.30;59.50
78876;DHT22;68253;52.506;5.486;2023-04-24T15:05:06;13.30;59.40
78876;DHT22;68253;52.506;5.486;2023-04-24T15:07:33;13.30;59.40
78876;DHT22;68253;52.506;5.486;2023-04-24T15:09:59;13.30;59.30
78876;DHT22;68253;52.506;5.486;2023-04-24T15:12:25;13.30;59.00
78876;DHT22;68253;52.506;5.486;2023-04-24T15:14:51;13.40;58.50
78876;DHT22;68253;52.506;5.486;2023-04-24T15:17:17;13.50;58.00
78876;DHT22;68253;52.506;5.486;2023-04-24T15:19:44;13.40;57.90
78876;DHT22;68253;52.506;5.486;2023-04-24T15:22:10;13.30;57.70
78876;DHT22;68253;52.506;5.486;2023-04-24T15:24:36;13.30;58.20
78876;DHT22;68253;52.506;5.486;2023-04-24T15:27:02;13.30;58.60
78876;DHT22;68253;52.506;5.486;2023-04-24T15:29:29;13.30;58.30
78876;DHT22;68253;52.506;5.486;2023-04-24T15:31:55;13.30;58.20
78876;DHT22;68253;52.506;5.486;2023-04-24T15:34:21;13.10;57.90
78876;DHT22;68253;52.506;5.486;2023-04-24T15:36:47;12.90;58.30
78876;DHT22;68253;52.506;5.486;2023-04-24T15:39:13;12.60;58.20
78876;DHT22;68253;52.506;5.486;2023-04-24T15:41:39;12.40;58.60
78876;DHT22;68253;52.506;5.486;2023-04-24T15:44:05;12.30;59.40
78876;DHT22;68253;52.506;5.486;2023-04-24T15:46:34;12.20;59.30
78876;DHT22;68253;52.506;5.486;2023-04-24T15:49:00;12.10;59.40
78876;DHT22;68253;52.506;5.486;2023-04-24T15:51:26;12.00;59.50